Airfield :
LOGIN :

Register | Disclaimer

   EN    FR    IT 

 










Legend :    VFR   Marginal VFR   IFR   Intensive IFR   Very Intensive IFR
Visi :
Ceiling :
>= 8 km
>= 3000ft
5 to 8 km
1000 to 3000 ft
1500m to 5 km
500 to 1000 ft
800 to 1500m
200 to 500 ft
< 800m
< 200 ft
Symbols :   Thunderstorms  Fog  Heavy snow  Heavy precipitations  Wind > 20 kt
SIGMETs :     Misc.  Thunderstorms  Icing  Turbulence  Mountain Waves  Volcanic Ashes






- Airport Elevation : 1260 ft
- IATA code : LDE


LFBT - Tarbes / Ossun

CURRENT METAR :
  • 280730Z AUTO 24010KT 9999 FEW019/// BKN026/// BKN033/// ///TCU 07/06 Q1020 BECMG SCT020 BKN050

EXPIRED METARs :
  • 280700Z AUTO 23014KT 9999 -RA FEW012/// BKN017/// OVC042/// //////CB 07/06 Q1020 BECMG SCT020 BKN050
  • 280630Z AUTO 24013KT 6000 RA FEW019/// SCT029/// BKN044/// //////CB 07/06 Q1020 BECMG NSW SCT020 BKN050
  • 280600Z AUTO 25008KT 9000 RA SCT031/// OVC042/// //////TCU 08/06 Q1019 TEMPO 2000 RA BECMG BKN030
  • 280530Z AUTO 21005KT 9999 -RA SCT039/// BKN046/// OVC052/// //////CB 07/06 Q1018 TEMPO 2000 RA BECMG BKN030
  • 280500Z AUTO 22006KT 9999 FEW035 SCT048 BKN074 07/06 Q1018 TEMPO 2000 RA BKN013

TAF TAF LFBT
Valid from the 28 at 06:00 until the 29 at 06:00 UTC


280500Z 2806/2906 25010KT 9999 BKN030
PROB40
TEMPO 2806/2807 2000 RA BKN013
BECMG 2808/2810 SCT020 BKN050
PROB40
TEMPO 2810/2821 3000 SHRA BKN014TCU FEW030CB
PROB40
TEMPO 2811/2816 27018G28KT
TEMPO 2900/2906 3000 -RA BKN015TCU



MET'MAP, your aeronautical weather chart ! - Copyright ORBIFLY December 2007 - Disclaimer

ORBIFLY MET'MAP TEAM :

Programming & Development : Alexandra Zaïnal
Original concept : Baudouin d'Aumeries
Technical & hardware support : Manuel Goepfert
Assistance : Marc-Olivier Méhu




SOURCES & CREDITS :

   NOAA